Time;durP1;ratioP1;P1;durP2;ratioP2;P2;SDS_P1;SDS_P2;PMS_P1;PMS_P2;Temp;Humidity;BMP_temperature;BMP_pressure;BME280_temperature;BME280_humidity;BME280_pressure;Samples;Min_cycle;Max_cycle;Signal;HPM_P1;HPM_P2
2021/03/12 00:00:11;;;;;;;10.70;2.60;;;7.50;89.80;;;;;;5074238;28;20452;-73
2021/03/12 00:02:37;;;;;;;3.07;1.30;;;7.50;89.00;;;;;;5074220;28;20425;-73
2021/03/12 00:05:06;;;;;;;3.97;1.60;;;7.50;89.00;;;;;;5073960;28;20452;-73
2021/03/12 00:07:32;;;;;;;7.10;1.27;;;7.50;89.10;;;;;;5074037;28;20433;-73
2021/03/12 00:09:58;;;;;;;7.60;1.63;;;7.50;88.70;;;;;;5074099;28;20440;-73
2021/03/12 00:12:25;;;;;;;5.33;1.40;;;7.50;88.80;;;;;;5074116;28;20449;-73
2021/03/12 00:14:52;;;;;;;10.63;1.60;;;7.50;88.30;;;;;;5073609;28;21025;-72
2021/03/12 00:17:18;;;;;;;3.70;1.23;;;7.50;88.20;;;;;;5073900;28;20448;-72
2021/03/12 00:19:44;;;;;;;5.87;1.50;;;7.50;88.60;;;;;;5073810;28;20464;-72
2021/03/12 00:22:10;;;;;;;11.90;2.30;;;7.50;88.50;;;;;;5073875;28;20440;-72
2021/03/12 00:24:37;;;;;;;11.70;3.57;;;7.50;88.50;;;;;;5073805;28;20440;-72
2021/03/12 00:27:03;;;;;;;8.10;2.20;;;7.50;88.60;;;;;;5073772;28;20448;-72
2021/03/12 00:29:30;;;;;;;6.90;1.93;;;7.50;89.00;;;;;;5073758;28;20460;-72
2021/03/12 00:31:56;;;;;;;6.83;1.70;;;7.50;88.60;;;;;;5073734;28;20792;-72
2021/03/12 00:34:23;;;;;;;5.33;1.60;;;7.50;89.30;;;;;;5073647;28;20443;-72
2021/03/12 00:36:49;;;;;;;6.83;2.07;;;7.50;89.10;;;;;;5073681;28;20445;-72
2021/03/12 00:39:15;;;;;;;5.53;2.07;;;7.50;89.40;;;;;;5073605;28;20872;-72
2021/03/12 00:41:41;;;;;;;6.30;1.73;;;7.40;89.30;;;;;;5073632;28;20445;-72
2021/03/12 00:44:07;;;;;;;4.93;2.73;;;7.40;89.70;;;;;;5073267;28;20959;-72
2021/03/12 00:46:34;;;;;;;8.10;2.30;;;7.40;89.90;;;;;;5074109;28;20444;-72
2021/03/12 00:49:01;;;;;;;3.97;1.77;;;7.40;90.10;;;;;;5073494;28;20461;-72
2021/03/12 00:51:27;;;;;;;7.07;1.87;;;7.30;90.20;;;;;;5073487;28;20444;-72
2021/03/12 00:53:53;;;;;;;3.40;1.60;;;7.30;90.40;;;;;;5073461;28;20444;-72
2021/03/12 00:56:19;;;;;;;11.30;2.63;;;7.20;90.60;;;;;;5073354;28;20484;-72
2021/03/12 00:58:45;;;;;;;6.37;1.40;;;7.20;90.90;;;;;;5073266;28;20469;-72
2021/03/12 01:01:12;;;;;;;7.43;2.50;;;7.20;90.90;;;;;;5073416;28;20470;-72
2021/03/12 01:03:39;;;;;;;5.20;2.33;;;7.20;91.00;;;;;;5073123;28;20980;-72
2021/03/12 01:06:05;;;;;;;4.73;1.77;;;7.10;91.00;;;;;;5073081;28;20456;-72
2021/03/12 01:08:32;;;;;;;10.03;1.77;;;7.00;91.10;;;;;;5073233;28;20460;-72
2021/03/12 01:10:58;;;;;;;5.37;1.60;;;7.10;91.10;;;;;;5073346;28;20429;-72
2021/03/12 01:13:24;;;;;;;10.17;2.43;;;7.20;90.90;;;;;;5073326;28;20452;-72
2021/03/12 01:15:50;;;;;;;7.07;2.00;;;7.20;90.90;;;;;;5072936;28;20472;-72
2021/03/12 01:18:16;;;;;;;4.07;1.40;;;7.10;90.70;;;;;;5073181;28;20521;-72
2021/03/12 01:20:43;;;;;;;6.20;1.50;;;7.20;90.70;;;;;;5073233;28;20449;-72
2021/03/12 01:23:10;;;;;;;8.17;1.77;;;7.10;90.60;;;;;;5073432;28;20451;-72
2021/03/12 01:25:39;;;;;;;2.90;1.67;;;7.10;90.60;;;;;;5072858;28;20436;-72
2021/03/12 01:28:06;;;;;;;9.50;2.30;;;7.20;90.60;;;;;;5073339;28;20465;-72
2021/03/12 01:30:34;;;;;;;5.60;1.87;;;7.10;90.20;;;;;;5073106;28;20444;-72
2021/03/12 01:33:01;;;;;;;6.30;2.03;;;7.20;90.00;;;;;;5072782;28;20919;-72
2021/03/12 01:35:27;;;;;;;13.23;2.53;;;7.10;89.60;;;;;;5073032;28;20476;-72
2021/03/12 01:37:54;;;;;;;4.90;1.90;;;7.10;89.90;;;;;;5072962;28;20464;-72
2021/03/12 01:40:23;;;;;;;4.73;1.80;;;7.10;90.20;;;;;;5073024;28;20519;-72
2021/03/12 01:42:50;;;;;;;10.23;2.20;;;7.10;90.20;;;;;;5072999;28;20868;-72
2021/03/12 01:45:21;;;;;;;7.20;2.73;;;7.10;90.20;;;;;;5072985;28;20490;-72
2021/03/12 01:47:48;;;;;;;13.90;2.40;;;7.20;90.00;;;;;;5072974;28;20515;-72
2021/03/12 01:50:15;;;;;;;2.93;1.43;;;7.20;89.60;;;;;;5072959;28;20440;-72
2021/03/12 01:52:42;;;;;;;7.23;2.10;;;7.20;89.60;;;;;;5073163;28;20517;-72
2021/03/12 01:55:16;;;;;;;6.37;1.67;;;7.30;89.50;;;;;;5072815;28;20487;-72
2021/03/12 01:57:43;;;;;;;6.60;2.40;;;7.30;88.10;;;;;;5072810;28;20472;-72
2021/03/12 02:00:10;;;;;;;8.50;2.70;;;7.40;87.90;;;;;;5072812;28;20456;-72
2021/03/12 02:02:38;;;;;;;8.83;2.10;;;7.40;87.20;;;;;;5072809;28;20445;-72
2021/03/12 02:05:05;;;;;;;4.00;1.50;;;7.50;86.40;;;;;;5072670;28;20441;-72
2021/03/12 02:07:32;;;;;;;4.50;1.80;;;7.40;86.60;;;;;;5072741;28;20432;-72
2021/03/12 02:09:58;;;;;;;3.67;1.77;;;7.40;87.00;;;;;;5072719;28;20498;-72
2021/03/12 02:12:31;;;;;;;5.50;1.57;;;7.50;87.20;;;;;;5075143;28;20444;-72
2021/03/12 02:15:04;;;;;;;5.13;1.47;;;7.40;87.30;;;;;;5076238;28;20457;-72
2021/03/12 02:17:37;;;;;;;5.97;1.60;;;7.50;88.10;;;;;;5076192;28;20784;-72
2021/03/12 02:20:28;;;;;;;7.43;1.87;;;7.40;88.10;;;;;;5076254;28;20429;-72
2021/03/12 02:23:14;;;;;;;6.67;1.40;;;7.40;88.60;;;;;;5076719;28;20455;-72
2021/03/12 02:25:45;;;;;;;7.37;1.77;;;7.50;89.00;;;;;;5076066;28;20440;-72
2021/03/12 02:28:13;;;;;;;10.47;2.20;;;7.40;88.70;;;;;;5076041;28;20457;-72
2021/03/12 02:30:41;;;;;;;5.97;1.50;;;7.40;88.70;;;;;;5076030;28;20420;-72
2021/03/12 02:33:08;;;;;;;7.83;2.47;;;7.40;88.60;;;;;;5075981;28;20440;-72
2021/03/12 02:35:35;;;;;;;8.07;2.57;;;7.40;88.70;;;;;;5075851;28;20483;-72
2021/03/12 02:38:02;;;;;;;5.70;2.00;;;7.40;88.80;;;;;;5075470;28;20469;-72
2021/03/12 02:40:30;;;;;;;7.87;2.13;;;7.40;88.60;;;;;;5075810;28;20449;-72
2021/03/12 02:42:56;;;;;;;12.20;2.17;;;7.40;88.80;;;;;;5075768;28;20444;-72
2021/03/12 02:45:23;;;;;;;10.30;2.40;;;7.40;88.90;;;;;;5075743;28;20437;-72
2021/03/12 02:47:51;;;;;;;14.13;2.03;;;7.40;89.40;;;;;;5075621;28;20467;-72
2021/03/12 02:50:17;;;;;;;5.73;2.10;;;7.40;89.50;;;;;;5075614;28;20440;-72
2021/03/12 02:52:45;;;;;;;7.70;2.90;;;7.30;89.70;;;;;;5075592;28;20518;-72
2021/03/12 02:55:13;;;;;;;13.50;2.90;;;7.30;89.70;;;;;;5075132;28;20476;-72
2021/03/12 02:57:40;;;;;;;19.03;2.77;;;7.40;89.90;;;;;;5075414;28;20444;-72
2021/03/12 03:00:08;;;;;;;19.07;2.23;;;7.40;89.50;;;;;;5075483;28;20471;-72
2021/03/12 03:02:35;;;;;;;7.17;2.80;;;7.40;89.90;;;;;;5075389;28;20440;-72
2021/03/12 03:05:02;;;;;;;12.57;3.33;;;7.40;89.80;;;;;;5075249;28;20554;-72
2021/03/12 03:07:28;;;;;;;15.33;3.70;;;7.30;89.70;;;;;;5074934;28;20812;-72
2021/03/12 03:09:55;;;;;;;13.00;3.00;;;7.40;89.70;;;;;;5075366;28;20445;-72
2021/03/12 03:12:25;;;;;;;12.83;3.50;;;7.40;89.70;;;;;;5075192;28;20449;-72
2021/03/12 03:14:54;;;;;;;16.60;2.73;;;7.40;88.50;;;;;;5075159;28;20473;-72
2021/03/12 03:17:22;;;;;;;9.83;2.40;;;7.30;87.60;;;;;;5075098;28;20471;-72
2021/03/12 03:19:51;;;;;;;12.17;2.77;;;7.30;87.90;;;;;;5075051;28;20444;-72
2021/03/12 03:22:18;;;;;;;8.20;2.53;;;7.30;87.90;;;;;;5074555;28;20447;-72
2021/03/12 03:24:45;;;;;;;8.70;2.27;;;7.30;87.50;;;;;;5074928;28;20440;-72
2021/03/12 03:27:12;;;;;;;11.63;2.17;;;7.30;87.50;;;;;;5074601;28;20486;-72
2021/03/12 03:29:38;;;;;;;12.37;2.80;;;7.40;87.30;;;;;;5074854;28;20468;-72
2021/03/12 03:32:06;;;;;;;10.57;3.30;;;7.30;87.10;;;;;;5074795;28;20448;-72
2021/03/12 03:34:32;;;;;;;9.83;2.37;;;7.30;86.90;;;;;;5074679;28;20444;-72
2021/03/12 03:36:59;;;;;;;7.57;2.70;;;7.30;86.40;;;;;;5074685;28;20858;-72
2021/03/12 03:39:25;;;;;;;16.03;3.37;;;7.30;86.40;;;;;;5074281;28;20979;-72
2021/03/12 03:41:54;;;;;;;8.77;2.37;;;7.30;86.20;;;;;;5074617;28;20440;-72
2021/03/12 03:44:24;;;;;;;10.73;2.53;;;7.30;86.20;;;;;;5074527;28;20444;-72
2021/03/12 03:46:54;;;;;;;13.67;2.80;;;7.40;85.70;;;;;;5074784;28;20452;-72
2021/03/12 03:49:22;;;;;;;15.17;2.47;;;7.30;85.60;;;;;;5074682;28;20519;-72
2021/03/12 03:51:49;;;;;;;11.40;2.47;;;7.30;85.30;;;;;;5074632;28;20444;-72
2021/03/12 03:54:19;;;;;;;10.10;2.20;;;7.40;85.50;;;;;;5074344;28;20448;-72
2021/03/12 03:56:46;;;;;;;10.00;3.10;;;7.40;85.00;;;;;;5073945;28;20895;-72
2021/03/12 03:59:13;;;;;;;12.37;2.53;;;7.40;84.40;;;;;;5074264;28;20514;-72
2021/03/12 04:01:40;;;;;;;12.93;2.23;;;7.40;84.50;;;;;;5073901;28;20436;-72
2021/03/12 04:04:08;;;;;;;5.00;2.00;;;7.40;84.00;;;;;;5074167;28;20436;-72
2021/03/12 04:06:35;;;;;;;15.50;3.40;;;7.40;84.00;;;;;;5073855;28;20448;-72
2021/03/12 04:09:02;;;;;;;9.77;2.47;;;7.30;84.40;;;;;;5073983;28;20460;-72
2021/03/12 04:11:33;;;;;;;8.87;2.13;;;7.40;84.60;;;;;;5073727;28;20992;-72
2021/03/12 04:14:00;;;;;;;15.97;2.50;;;7.40;84.60;;;;;;5074038;28;20440;-72
2021/03/12 04:16:27;;;;;;;12.57;2.77;;;7.40;85.70;;;;;;5073841;28;20503;-72
2021/03/12 04:18:54;;;;;;;8.93;1.80;;;7.40;84.90;;;;;;5073865;28;20465;-72
2021/03/12 04:21:21;;;;;;;14.07;2.60;;;7.40;86.20;;;;;;5073883;28;20449;-72
2021/03/12 04:23:47;;;;;;;10.17;2.53;;;7.30;85.90;;;;;;5073854;28;20494;-72
2021/03/12 04:26:14;;;;;;;10.80;2.70;;;7.30;86.80;;;;;;5073815;28;20428;-72
2021/03/12 04:28:41;;;;;;;10.50;2.43;;;7.30;87.10;;;;;;5074270;28;20488;-72
2021/03/12 04:31:08;;;;;;;12.93;3.00;;;7.30;87.30;;;;;;5073477;28;20785;-72
2021/03/12 04:33:35;;;;;;;9.30;2.40;;;7.20;87.60;;;;;;5073088;28;20819;-72
2021/03/12 04:36:02;;;;;;;13.80;3.23;;;7.20;87.90;;;;;;5073352;28;20472;-72
2021/03/12 04:38:28;;;;;;;8.07;2.70;;;7.20;88.30;;;;;;5073634;28;20539;-72
2021/03/12 04:40:55;;;;;;;8.80;1.93;;;7.10;88.60;;;;;;5073618;28;20453;-72
2021/03/12 04:43:22;;;;;;;11.40;2.70;;;7.10;88.40;;;;;;5073614;28;20444;-72
2021/03/12 04:45:49;;;;;;;12.27;2.40;;;7.10;88.20;;;;;;5073594;28;20447;-72
2021/03/12 04:48:16;;;;;;;9.47;3.10;;;7.00;88.40;;;;;;5073481;28;20464;-72
2021/03/12 04:50:43;;;;;;;18.00;2.50;;;7.10;89.60;;;;;;5073517;28;20448;-72
2021/03/12 04:53:10;;;;;;;14.00;2.57;;;7.00;89.20;;;;;;5073233;28;20931;-72
2021/03/12 04:55:36;;;;;;;12.00;3.03;;;7.10;89.50;;;;;;5073063;28;20998;-72
2021/03/12 04:58:03;;;;;;;13.50;3.47;;;7.10;89.30;;;;;;5073673;28;20456;-72
2021/03/12 05:00:31;;;;;;;12.03;2.43;;;7.10;89.50;;;;;;5073429;28;20441;-72
2021/03/12 05:03:00;;;;;;;10.60;2.13;;;7.10;89.30;;;;;;5073391;28;20444;-72
2021/03/12 05:05:27;;;;;;;13.37;2.30;;;7.00;89.40;;;;;;5072978;28;20444;-72
2021/03/12 05:07:54;;;;;;;8.70;2.53;;;7.00;89.40;;;;;;5073317;28;20475;-72
2021/03/12 05:10:20;;;;;;;16.93;3.67;;;7.00;89.50;;;;;;5073384;28;20456;-72
2021/03/12 05:12:46;;;;;;;14.53;2.83;;;6.90;89.60;;;;;;5073281;28;20444;-72
2021/03/12 05:15:13;;;;;;;11.90;2.93;;;7.00;89.40;;;;;;5073219;28;20461;-72
2021/03/12 05:17:40;;;;;;;15.07;2.47;;;7.00;89.10;;;;;;5073208;28;20436;-72
2021/03/12 05:20:09;;;;;;;18.53;2.87;;;7.10;88.90;;;;;;5073201;28;20444;-72
2021/03/12 05:22:35;;;;;;;12.17;2.60;;;7.10;88.80;;;;;;5073201;28;20436;-72
2021/03/12 05:25:01;;;;;;;12.03;3.60;;;7.10;88.60;;;;;;5073975;28;20452;-72
2021/03/12 05:27:27;;;;;;;12.57;2.40;;;7.10;88.00;;;;;;5073146;28;20432;-72
2021/03/12 05:29:53;;;;;;;18.27;3.10;;;7.00;87.70;;;;;;5073109;28;20444;-72
2021/03/12 05:32:19;;;;;;;10.73;2.30;;;7.00;87.70;;;;;;5073121;28;20444;-72
2021/03/12 05:34:46;;;;;;;9.53;2.10;;;7.00;87.20;;;;;;5073214;28;20436;-72
2021/03/12 05:37:13;;;;;;;7.73;2.43;;;6.90;87.00;;;;;;5073085;28;20818;-72
2021/03/12 05:39:39;;;;;;;9.33;2.90;;;6.90;86.80;;;;;;5073055;28;20982;-72
2021/03/12 05:42:07;;;;;;;12.80;3.20;;;6.80;87.00;;;;;;5073132;28;20455;-73
2021/03/12 05:44:33;;;;;;;11.10;3.17;;;6.80;86.90;;;;;;5072901;28;20445;-72
2021/03/12 05:47:00;;;;;;;11.30;3.27;;;6.90;87.30;;;;;;5075141;28;20445;-72
2021/03/12 05:49:28;;;;;;;9.83;2.97;;;6.90;87.40;;;;;;5076433;28;20468;-72
2021/03/12 05:51:54;;;;;;;18.33;2.80;;;6.80;87.30;;;;;;5076609;28;20478;-72
2021/03/12 05:54:21;;;;;;;14.67;2.70;;;6.90;87.60;;;;;;5076619;28;20483;-72
2021/03/12 05:56:48;;;;;;;14.63;3.47;;;6.90;88.00;;;;;;5076522;28;20484;-72
2021/03/12 05:59:14;;;;;;;17.70;2.93;;;6.90;88.00;;;;;;5076498;28;20818;-72
2021/03/12 06:01:40;;;;;;;15.30;3.30;;;7.00;88.20;;;;;;5076543;28;20460;-72
2021/03/12 06:04:07;;;;;;;16.13;2.30;;;7.00;88.40;;;;;;5076479;28;20451;-72
2021/03/12 06:06:36;;;;;;;13.60;2.80;;;7.00;88.10;;;;;;5076313;28;20886;-73
2021/03/12 06:09:04;;;;;;;12.00;3.13;;;6.90;88.00;;;;;;5076045;28;21035;-72
2021/03/12 06:11:31;;;;;;;11.83;3.00;;;7.00;88.40;;;;;;5076416;28;20518;-72
2021/03/12 06:13:58;;;;;;;11.97;2.70;;;7.00;87.90;;;;;;5076465;28;20926;-72
2021/03/12 06:16:26;;;;;;;9.80;2.97;;;7.00;87.90;;;;;;5076186;28;20491;-72
2021/03/12 06:19:12;;;;;;;10.57;2.43;;;7.00;88.40;;;;;;5076096;28;20465;-72
2021/03/12 06:21:39;;;;;;;14.63;3.60;;;7.00;87.80;;;;;;5076191;28;20448;-72
2021/03/12 06:24:27;;;;;;;8.80;3.07;;;7.00;87.90;;;;;;5076182;28;20433;-72
2021/03/12 06:26:54;;;;;;;9.27;2.90;;;7.00;88.00;;;;;;5076171;28;20428;-72
2021/03/12 06:29:32;;;;;;;17.27;3.60;;;7.00;87.90;;;;;;5075940;28;20467;-72
2021/03/12 06:31:58;;;;;;;11.73;3.70;;;7.00;87.90;;;;;;5076020;28;20425;-72
2021/03/12 06:34:24;;;;;;;8.13;2.80;;;7.00;87.90;;;;;;5075926;28;20447;-72
2021/03/12 06:36:50;;;;;;;11.23;3.23;;;7.10;87.60;;;;;;5075960;28;20522;-72
2021/03/12 06:39:17;;;;;;;13.23;3.30;;;7.10;87.90;;;;;;5075836;28;20514;-72
2021/03/12 06:41:45;;;;;;;15.37;2.97;;;7.00;87.60;;;;;;5075919;28;20455;-72
2021/03/12 06:44:30;;;;;;;11.17;3.60;;;7.00;87.70;;;;;;5075827;28;20437;-72
2021/03/12 06:46:56;;;;;;;15.17;2.60;;;7.10;87.50;;;;;;5075437;28;20813;-72
2021/03/12 06:49:23;;;;;;;13.13;3.13;;;7.10;87.80;;;;;;5075241;28;20975;-72
2021/03/12 06:51:54;;;;;;;8.30;2.57;;;7.10;87.40;;;;;;5075697;28;20433;-72
2021/03/12 06:54:20;;;;;;;12.07;3.20;;;7.00;87.30;;;;;;5075592;28;20448;-72
2021/03/12 06:56:46;;;;;;;8.07;2.67;;;7.10;87.70;;;;;;5075191;28;20530;-72
2021/03/12 06:59:14;;;;;;;14.43;2.57;;;7.10;87.70;;;;;;5075437;28;20460;-72
2021/03/12 07:01:41;;;;;;;10.00;2.83;;;7.10;87.70;;;;;;5075454;28;20510;-73
2021/03/12 07:04:12;;;;;;;11.17;2.53;;;7.30;87.50;;;;;;5075361;28;20447;-73
2021/03/12 07:06:44;;;;;;;8.43;2.60;;;7.30;87.20;;;;;;5075099;28;20459;-72
2021/03/12 07:09:10;;;;;;;10.73;3.10;;;7.30;86.80;;;;;;5075292;28;20487;-72
2021/03/12 07:11:36;;;;;;;10.00;2.30;;;7.30;86.30;;;;;;5075244;28;20449;-72
2021/03/12 07:14:03;;;;;;;10.37;2.50;;;7.40;86.50;;;;;;5075238;28;20444;-72
2021/03/12 07:16:30;;;;;;;9.73;2.80;;;7.40;87.00;;;;;;5075089;28;20479;-72
2021/03/12 07:18:58;;;;;;;12.97;2.83;;;7.50;86.70;;;;;;5075070;28;20465;-72
2021/03/12 07:21:26;;;;;;;18.90;3.33;;;7.50;86.40;;;;;;5074993;28;20437;-72
2021/03/12 07:23:57;;;;;;;13.90;3.00;;;7.60;85.90;;;;;;5074958;28;20449;-72
2021/03/12 07:26:23;;;;;;;11.30;2.40;;;7.60;86.00;;;;;;5074837;28;20484;-72
2021/03/12 07:28:56;;;;;;;13.17;4.20;;;7.60;85.70;;;;;;5074851;28;20476;-72
2021/03/12 07:31:31;;;;;;;12.57;2.93;;;7.60;86.60;;;;;;5074923;28;20417;-72
2021/03/12 07:34:05;;;;;;;18.63;4.37;;;7.70;86.00;;;;;;5074853;28;20431;-72
2021/03/12 07:36:32;;;;;;;15.70;3.07;;;7.80;85.60;;;;;;5074678;28;20467;-72
2021/03/12 07:39:03;;;;;;;8.37;3.00;;;7.90;84.80;;;;;;5074649;28;20892;-72
2021/03/12 07:41:30;;;;;;;14.43;2.97;;;7.90;84.60;;;;;;5074911;28;20425;-72
2021/03/12 07:43:56;;;;;;;9.60;3.10;;;8.00;84.40;;;;;;5074350;28;20954;-72
2021/03/12 07:46:25;;;;;;;10.63;3.00;;;8.10;83.80;;;;;;5074563;28;20452;-72
2021/03/12 07:48:51;;;;;;;10.93;3.07;;;8.20;83.60;;;;;;5074413;28;20471;-72
2021/03/12 07:51:19;;;;;;;20.67;3.13;;;8.20;83.10;;;;;;5074465;28;20452;-72
2021/03/12 07:53:50;;;;;;;14.20;3.33;;;8.20;83.40;;;;;;5074406;28;20448;-72
2021/03/12 07:56:17;;;;;;;13.87;3.27;;;8.30;82.40;;;;;;5074297;28;20530;-72
2021/03/12 07:58:58;;;;;;;15.63;4.07;;;8.40;82.10;;;;;;5074753;28;20514;-72
2021/03/12 08:01:25;;;;;;;12.03;2.70;;;8.40;82.10;;;;;;5074298;28;20490;-72
2021/03/12 08:03:54;;;;;;;14.23;4.50;;;8.40;81.90;;;;;;5074212;28;20444;-72
2021/03/12 08:06:36;;;;;;;16.67;3.60;;;8.40;81.90;;;;;;5073913;28;20456;-72
2021/03/12 08:09:24;;;;;;;13.33;4.30;;;8.40;81.80;;;;;;5073753;28;20465;-72
2021/03/12 08:11:54;;;;;;;12.13;3.10;;;8.40;82.10;;;;;;5073674;28;20488;-72
2021/03/12 08:14:20;;;;;;;13.60;3.10;;;8.40;82.00;;;;;;5074297;28;20444;-73
2021/03/12 08:17:16;;;;;;;10.53;2.87;;;8.50;83.00;;;;;;5073904;28;20481;-72
2021/03/12 08:19:46;;;;;;;16.30;3.13;;;8.60;81.10;;;;;;5073907;28;20852;-73
2021/03/12 08:22:44;;;;;;;17.70;3.30;;;8.60;80.80;;;;;;5073885;28;20456;-73
2021/03/12 08:25:29;;;;;;;13.13;3.03;;;8.60;81.50;;;;;;5073408;28;20455;-73
2021/03/12 08:27:55;;;;;;;13.40;2.27;;;8.70;81.50;;;;;;5073306;28;20519;-73
2021/03/12 08:30:48;;;;;;;14.33;4.07;;;8.70;80.40;;;;;;5073480;28;20939;-73
2021/03/12 08:33:30;;;;;;;6.57;2.83;;;8.70;81.20;;;;;;5073425;28;20804;-73
2021/03/12 08:35:59;;;;;;;10.53;2.63;;;8.80;81.00;;;;;;5071868;28;20481;-73
2021/03/12 08:38:37;;;;;;;19.37;3.10;;;8.90;80.60;;;;;;5073649;28;20464;-73
2021/03/12 08:41:07;;;;;;;15.90;2.90;;;8.90;79.90;;;;;;5073646;28;20440;-73
2021/03/12 08:43:34;;;;;;;11.03;2.80;;;8.90;80.10;;;;;;5073636;28;20535;-73
2021/03/12 08:46:02;;;;;;;16.00;3.47;;;9.00;80.50;;;;;;5073244;28;20953;-73
2021/03/12 08:48:30;;;;;;;17.90;3.07;;;9.10;79.80;;;;;;5073168;28;21047;-73
2021/03/12 08:50:57;;;;;;;17.90;3.30;;;9.20;79.40;;;;;;5073790;28;20455;-73
2021/03/12 08:53:25;;;;;;;15.00;3.50;;;9.20;79.50;;;;;;5087450;28;20455;-73
2021/03/12 08:55:54;;;;;;;16.30;4.30;;;9.30;79.70;;;;;;5091698;28;20471;-73
2021/03/12 08:58:22;;;;;;;18.30;3.40;;;9.30;79.00;;;;;;5093523;28;20520;-75
2021/03/12 09:00:50;;;;;;;16.90;4.20;;;9.30;79.00;;;;;;5093611;28;20439;-73
2021/03/12 09:03:19;;;;;;;12.10;3.87;;;9.30;79.80;;;;;;5092796;28;20776;-73
2021/03/12 09:05:46;;;;;;;23.87;3.27;;;9.30;80.00;;;;;;5093237;28;20459;-73
2021/03/12 09:08:13;;;;;;;14.80;2.70;;;9.30;78.90;;;;;;5093513;28;20467;-74
2021/03/12 09:10:41;;;;;;;25.00;3.60;;;9.40;77.40;;;;;;5093527;28;20451;-73
2021/03/12 09:13:17;;;;;;;13.07;3.03;;;9.40;77.20;;;;;;5093463;28;20448;-73
2021/03/12 09:15:43;;;;;;;10.40;3.13;;;9.30;76.30;;;;;;5093615;28;20497;-73
2021/03/12 09:18:13;;;;;;;12.40;3.07;;;9.30;77.50;;;;;;5093643;28;20464;-73
2021/03/12 09:20:40;;;;;;;17.23;3.50;;;9.20;77.60;;;;;;5095264;28;20439;-73
2021/03/12 09:23:07;;;;;;;15.50;3.50;;;9.30;77.50;;;;;;5097651;28;20435;-73
2021/03/12 09:25:34;;;;;;;15.07;2.77;;;9.40;76.80;;;;;;5097744;28;20436;-73
2021/03/12 09:28:06;;;;;;;19.60;3.67;;;9.40;75.30;;;;;;5097181;28;20477;-73
2021/03/12 09:30:36;;;;;;;17.13;3.40;;;9.50;75.10;;;;;;5097515;28;20434;-73
2021/03/12 09:33:03;;;;;;;15.17;2.77;;;9.60;74.20;;;;;;5097638;28;20434;-74
2021/03/12 09:35:29;;;;;;;15.67;3.30;;;9.70;75.60;;;;;;5097262;28;20482;-73
2021/03/12 09:37:57;;;;;;;16.17;3.17;;;9.70;74.60;;;;;;5097667;28;20468;-73
2021/03/12 09:40:31;;;;;;;16.27;3.03;;;9.80;73.50;;;;;;5097264;28;20475;-73
2021/03/12 09:42:58;;;;;;;12.23;2.63;;;9.90;72.80;;;;;;5097269;28;20424;-73
2021/03/12 09:45:25;;;;;;;17.43;2.50;;;9.90;72.30;;;;;;5097153;28;20447;-73
2021/03/12 09:47:53;;;;;;;12.07;2.80;;;10.00;69.80;;;;;;5097006;28;20459;-73
2021/03/12 09:50:23;;;;;;;13.47;3.03;;;10.10;69.00;;;;;;5096778;28;20945;-73
2021/03/12 09:52:50;;;;;;;13.23;2.93;;;10.10;68.70;;;;;;5097036;28;20432;-73
2021/03/12 09:55:17;;;;;;;13.93;2.73;;;10.20;69.80;;;;;;5096899;28;20450;-73
2021/03/12 09:57:44;;;;;;;14.97;3.00;;;10.20;69.40;;;;;;5096522;28;20956;-73
2021/03/12 10:00:12;;;;;;;20.77;3.67;;;10.10;70.20;;;;;;5097119;28;20447;-71
2021/03/12 10:02:55;;;;;;;18.30;3.17;;;10.10;70.80;;;;;;5096858;28;20510;-73
2021/03/12 10:05:23;;;;;;;10.00;3.10;;;10.10;71.20;;;;;;5095241;28;20492;-72
2021/03/12 10:07:49;;;;;;;15.37;2.47;;;10.10;69.60;;;;;;5096719;28;20846;-74
2021/03/12 10:10:18;;;;;;;12.60;3.70;;;10.00;69.60;;;;;;5096649;28;20933;-73
2021/03/12 10:12:45;;;;;;;15.90;2.40;;;10.10;69.00;;;;;;5096606;28;20481;-72
2021/03/12 10:15:14;;;;;;;20.80;3.13;;;10.40;69.00;;;;;;5096147;28;20435;-72
2021/03/12 10:17:41;;;;;;;19.90;3.00;;;10.60;66.90;;;;;;5096088;28;20933;-72
2021/03/12 10:20:18;;;;;;;19.33;2.97;;;10.90;66.20;;;;;;5096807;28;20482;-73
2021/03/12 10:22:47;;;;;;;14.20;2.77;;;11.00;64.70;;;;;;5097257;28;20431;-73
2021/03/12 10:25:15;;;;;;;21.23;3.50;;;11.00;63.90;;;;;;5096746;28;20428;-73
2021/03/12 10:27:44;;;;;;;16.03;3.10;;;10.90;64.10;;;;;;5096288;28;20435;-73
2021/03/12 10:30:12;;;;;;;11.63;2.33;;;10.70;63.00;;;;;;5096360;28;20458;-73
2021/03/12 10:32:40;;;;;;;21.33;2.70;;;10.40;63.00;;;;;;5095323;28;20960;-73
2021/03/12 10:35:17;;;;;;;14.63;3.07;;;10.30;65.40;;;;;;5096237;28;20444;-73
2021/03/12 10:37:43;;;;;;;23.83;3.97;;;10.30;66.30;;;;;;5095792;28;20760;-73
2021/03/12 10:40:10;;;;;;;16.50;3.60;;;10.30;66.80;;;;;;5096135;28;20424;-73
2021/03/12 10:42:37;;;;;;;21.63;3.27;;;10.30;66.30;;;;;;5096154;28;20423;-73
2021/03/12 10:45:06;;;;;;;21.30;4.33;;;10.40;67.70;;;;;;5096099;28;20841;-73
2021/03/12 10:47:33;;;;;;;17.10;5.03;;;10.50;68.00;;;;;;5095533;28;20941;-73
2021/03/12 10:49:59;;;;;;;15.93;2.60;;;10.70;65.90;;;;;;5096005;28;20508;-73
2021/03/12 10:52:28;;;;;;;10.40;2.10;;;10.70;65.60;;;;;;5095936;28;20452;-73
2021/03/12 10:54:56;;;;;;;13.00;2.87;;;10.70;63.40;;;;;;5095825;28;20439;-73
2021/03/12 10:57:38;;;;;;;14.50;2.37;;;10.70;63.10;;;;;;5095439;28;20471;-73
2021/03/12 11:00:13;;;;;;;18.63;2.97;;;10.70;63.10;;;;;;5095781;28;20424;-73
2021/03/12 11:02:40;;;;;;;19.63;3.10;;;10.80;65.00;;;;;;5095804;28;20454;-73
2021/03/12 11:05:08;;;;;;;22.27;2.60;;;11.10;63.80;;;;;;5095525;28;20554;-73
2021/03/12 11:07:35;;;;;;;20.10;2.73;;;11.40;59.70;;;;;;5095311;28;20887;-73
2021/03/12 11:10:01;;;;;;;16.20;3.07;;;11.80;59.40;;;;;;5095616;28;20795;-73
2021/03/12 11:12:36;;;;;;;19.83;4.30;;;12.10;59.00;;;;;;5095354;28;20467;-73
2021/03/12 11:15:02;;;;;;;20.67;3.50;;;12.00;59.00;;;;;;5095461;28;20432;-73
2021/03/12 11:17:29;;;;;;;21.23;3.40;;;11.80;58.60;;;;;;5095091;28;20487;-73
2021/03/12 11:19:55;;;;;;;23.10;3.00;;;11.70;58.70;;;;;;5095248;28;20826;-73
2021/03/12 11:22:21;;;;;;;26.73;3.30;;;11.70;59.10;;;;;;5095172;28;20448;-73
2021/03/12 11:24:48;;;;;;;20.97;3.03;;;11.70;59.10;;;;;;5095173;28;20447;-73
2021/03/12 11:27:15;;;;;;;10.40;2.50;;;11.80;59.70;;;;;;5095152;28;20424;-73
2021/03/12 11:29:41;;;;;;;16.90;3.03;;;11.80;58.50;;;;;;5095064;28;20464;-73
2021/03/12 11:32:08;;;;;;;14.77;2.43;;;11.80;58.70;;;;;;5095108;28;20444;-73
2021/03/12 11:34:34;;;;;;;18.40;2.70;;;11.80;57.40;;;;;;5095141;28;20489;-73
2021/03/12 11:37:01;;;;;;;24.47;5.70;;;11.80;57.70;;;;;;5094899;28;20486;-73
2021/03/12 11:39:27;;;;;;;21.63;2.50;;;11.80;57.20;;;;;;5094967;28;20475;-73
2021/03/12 11:41:54;;;;;;;16.00;3.80;;;11.80;57.40;;;;;;5094949;28;20444;-73
2021/03/12 11:44:20;;;;;;;22.43;3.50;;;11.80;57.70;;;;;;5093974;28;20447;-73
2021/03/12 11:46:47;;;;;;;20.53;4.03;;;11.80;57.70;;;;;;5094916;28;20458;-73
2021/03/12 11:49:13;;;;;;;16.03;2.63;;;11.50;58.80;;;;;;5094734;28;20460;-73
2021/03/12 11:51:41;;;;;;;10.50;2.63;;;11.30;58.10;;;;;;5094794;28;20473;-73
2021/03/12 11:54:08;;;;;;;24.67;4.10;;;11.20;58.60;;;;;;5094681;28;20477;-73
2021/03/12 11:56:34;;;;;;;18.37;3.17;;;11.30;59.20;;;;;;5094911;28;20482;-73
2021/03/12 11:59:01;;;;;;;31.07;4.43;;;11.40;58.70;;;;;;5094546;28;20468;-73
2021/03/12 12:01:32;;;;;;;13.50;2.43;;;11.60;58.20;;;;;;5094524;28;20823;-73
2021/03/12 12:03:59;;;;;;;22.13;2.97;;;11.60;57.40;;;;;;5094548;28;20427;-73
2021/03/12 12:06:25;;;;;;;16.63;2.73;;;11.40;57.70;;;;;;5094145;28;20467;-73
2021/03/12 12:08:52;;;;;;;19.97;3.40;;;11.50;58.30;;;;;;5094022;28;20463;-73
2021/03/12 12:11:18;;;;;;;17.57;3.57;;;11.40;58.70;;;;;;5094067;28;20451;-73
2021/03/12 12:13:45;;;;;;;16.90;5.17;;;11.40;59.40;;;;;;5094724;28;20452;-73
2021/03/12 12:16:12;;;;;;;22.47;3.83;;;11.50;58.80;;;;;;5094175;28;20498;-73
2021/03/12 12:18:38;;;;;;;25.70;3.47;;;11.50;59.00;;;;;;5094173;28;20588;-73
2021/03/12 12:21:05;;;;;;;12.93;2.20;;;11.60;58.80;;;;;;5094222;28;20444;-73
2021/03/12 12:23:31;;;;;;;23.53;2.57;;;11.60;57.80;;;;;;5094179;28;20447;-73
2021/03/12 12:25:57;;;;;;;8.50;2.03;;;11.40;58.30;;;;;;5094142;28;20431;-73
2021/03/12 12:28:24;;;;;;;19.80;2.97;;;11.40;58.60;;;;;;5094094;28;20466;-73
2021/03/12 12:30:50;;;;;;;16.00;3.50;;;11.40;58.90;;;;;;5094101;28;20435;-73
2021/03/12 12:33:17;;;;;;;22.70;3.30;;;11.30;58.30;;;;;;5094926;28;20447;-73
2021/03/12 12:35:44;;;;;;;15.90;2.90;;;11.30;58.80;;;;;;5093985;28;20808;-73
2021/03/12 12:38:10;;;;;;;20.43;3.20;;;11.30;58.60;;;;;;5093862;28;20463;-73
2021/03/12 12:40:38;;;;;;;31.17;4.20;;;11.30;58.50;;;;;;5093967;28;20451;-74
2021/03/12 12:43:04;;;;;;;29.67;3.67;;;11.30;58.90;;;;;;5093578;28;20447;-74
2021/03/12 12:45:31;;;;;;;24.50;3.97;;;11.40;59.00;;;;;;5093496;28;20937;-73
2021/03/12 12:47:57;;;;;;;38.10;5.07;;;11.40;59.20;;;;;;5093769;28;20464;-73
2021/03/12 12:50:25;;;;;;;34.07;5.20;;;11.50;59.20;;;;;;5093792;28;20536;-73
2021/03/12 12:52:51;;;;;;;21.93;4.10;;;11.70;58.90;;;;;;5093777;28;20447;-72